Augusta, Montana
Current Conditions -  °F | °C
As of 9:53 AM on Thursday 27 Nov 2014 (Local Time) from KGTF Reporting Station
Clear Clear  
Wind Chill: 41°   Ceiling: Unl
Heat Index: 49°   Visibility: 10mi
Dew Point: 33°   Wind: 26mph
Humidity: 54%   Direction: 240°WSW
Pressure: 29.79"   Gusts: 35mph
Location:  47.49°N, 112.4°W
Report Text: KGTF 271653Z 24023G30KT 10SM CLR 09/01 A2979 RMK AO2 PK WND 24030/1651 SLP112 T00940006
Loading
Personal Weather Stations






























Interactive Weather Map New forecast layout! Learn more

10-Day Weather Forecast

Advertisements
Track Severe Weather on mobile